createdAt,value
2023-04-13T00:02:46.411Z,57.15
2023-04-13T00:05:48.638Z,57.15
2023-04-13T00:08:51.007Z,57.11
2023-04-13T00:11:52.462Z,57.16
2023-04-13T00:14:53.812Z,57.20
2023-04-13T00:17:55.309Z,57.17
2023-04-13T00:20:57.186Z,57.35
2023-04-13T00:23:59.225Z,57.26
2023-04-13T00:27:01.123Z,57.28
2023-04-13T00:30:03.497Z,57.15
2023-04-13T00:33:05.068Z,57.30
2023-04-13T00:36:06.925Z,57.30
2023-04-13T00:39:08.350Z,57.32
2023-04-13T00:42:13.170Z,57.16
2023-04-13T00:45:15.252Z,57.18
2023-04-13T00:48:16.744Z,57.28
2023-04-13T00:51:18.389Z,57.28
2023-04-13T00:54:19.845Z,57.23
2023-04-13T00:57:21.263Z,57.18
2023-04-13T01:00:24.546Z,57.16
2023-04-13T01:03:28.240Z,57.27
2023-04-13T01:06:34.217Z,57.22
2023-04-13T01:09:41.055Z,57.23
2023-04-13T01:12:42.464Z,57.25
2023-04-13T01:15:52.111Z,57.30
2023-04-13T01:18:54.590Z,57.32
2023-04-13T01:21:56.420Z,57.04
2023-04-13T01:25:07.000Z,57.20
2023-04-13T01:28:09.678Z,57.26
2023-04-13T01:31:14.186Z,57.23
2023-04-13T01:34:16.536Z,57.16
2023-04-13T01:37:19.491Z,57.23
2023-04-13T01:40:24.054Z,57.29
2023-04-13T01:43:28.820Z,57.18
2023-04-13T01:46:43.153Z,57.25
2023-04-13T01:49:54.006Z,57.31
2023-04-13T01:53:27.860Z,57.24
2023-04-13T01:56:29.440Z,57.33
2023-04-13T01:59:35.530Z,57.35
2023-04-13T02:02:38.051Z,57.29
2023-04-13T02:05:40.556Z,57.40
2023-04-13T02:08:42.672Z,57.28
2023-04-13T02:11:44.244Z,57.25
2023-04-13T02:14:46.167Z,57.33
2023-04-13T02:17:47.819Z,57.32
2023-04-13T02:20:58.132Z,57.38
2023-04-13T02:23:59.659Z,57.44
2023-04-13T02:27:02.012Z,57.28
2023-04-13T02:30:03.715Z,57.38
2023-04-13T02:33:07.259Z,57.38
2023-04-13T02:36:09.284Z,57.20
2023-04-13T02:39:13.859Z,57.34
2023-04-13T02:42:16.310Z,57.41
2023-04-13T02:45:18.307Z,57.41
2023-04-13T02:48:23.542Z,57.36
2023-04-13T02:51:25.046Z,57.43
2023-04-13T02:54:26.478Z,57.36
2023-04-13T02:57:28.201Z,57.30
2023-04-13T03:00:32.950Z,57.30
2023-04-13T03:03:39.384Z,57.31
2023-04-13T03:06:44.131Z,57.39
2023-04-13T03:09:47.152Z,57.53
2023-04-13T03:12:50.421Z,57.52
2023-04-13T03:15:52.734Z,57.71
2023-04-13T03:18:56.173Z,57.84
2023-04-13T03:21:57.771Z,57.98
2023-04-13T03:25:02.666Z,58.05
2023-04-13T03:28:09.591Z,58.14
2023-04-13T03:31:17.250Z,58.13
2023-04-13T03:34:18.893Z,58.28
2023-04-13T03:37:21.592Z,58.22
2023-04-13T03:40:23.436Z,58.30
2023-04-13T03:43:27.336Z,58.04
2023-04-13T03:46:37.670Z,58.30
2023-04-13T03:49:49.677Z,58.34
2023-04-13T03:52:52.100Z,58.33
2023-04-13T03:55:54.163Z,58.28
2023-04-13T03:58:55.891Z,58.17
2023-04-13T04:02:02.632Z,58.30
2023-04-13T04:05:04.894Z,58.22
2023-04-13T04:08:06.703Z,58.21
2023-04-13T04:11:08.261Z,58.14
2023-04-13T04:14:10.189Z,58.11
2023-04-13T04:17:13.028Z,58.11
2023-04-13T04:20:15.050Z,58.01
2023-04-13T04:23:19.723Z,58.04
2023-04-13T04:26:30.036Z,57.95
2023-04-13T04:29:34.807Z,57.95
2023-04-13T04:32:49.291Z,57.95
2023-04-13T04:35:55.035Z,57.88
2023-04-13T04:39:04.522Z,57.91
2023-04-13T04:42:12.208Z,57.80
2023-04-13T04:45:17.484Z,57.82
2023-04-13T04:48:24.870Z,57.83
2023-04-13T04:51:27.877Z,57.76
2023-04-13T04:54:30.166Z,57.83
2023-04-13T04:57:35.664Z,57.88
2023-04-13T05:00:38.757Z,58.00
2023-04-13T05:03:49.472Z,58.25
2023-04-13T05:06:58.281Z,58.47
2023-04-13T05:10:00.668Z,58.46
2023-04-13T05:13:02.228Z,58.52
2023-04-13T05:16:05.807Z,58.59
2023-04-13T05:19:08.941Z,58.61
2023-04-13T05:22:21.437Z,58.63
2023-04-13T05:25:29.697Z,58.59
2023-04-13T05:28:36.059Z,58.61
2023-04-13T05:31:37.960Z,58.62
2023-04-13T05:34:39.381Z,58.66
2023-04-13T05:37:47.741Z,58.74
2023-04-13T05:40:54.494Z,58.62
2023-04-13T05:43:57.082Z,58.53
2023-04-13T05:46:58.586Z,58.54
2023-04-13T05:50:00.149Z,58.52
2023-04-13T05:53:01.588Z,58.46
2023-04-13T05:56:10.847Z,58.39
2023-04-13T05:59:14.370Z,58.48
2023-04-13T06:02:16.238Z,58.33
2023-04-13T06:05:18.446Z,58.36
2023-04-13T06:08:21.749Z,58.33
2023-04-13T06:11:26.254Z,58.18
2023-04-13T06:14:27.832Z,58.21
2023-04-13T06:17:29.398Z,58.25
2023-04-13T06:20:33.359Z,58.12
2023-04-13T06:23:34.777Z,58.08
2023-04-13T06:26:40.784Z,58.00
2023-04-13T06:29:42.370Z,58.02
2023-04-13T06:32:45.779Z,57.96
2023-04-13T06:35:52.126Z,57.99
2023-04-13T06:38:55.348Z,57.93
2023-04-13T06:41:57.762Z,57.89
2023-04-13T06:45:17.886Z,57.93
2023-04-13T06:48:19.476Z,57.86
2023-04-13T06:51:23.742Z,57.82
2023-04-13T06:54:27.051Z,57.89
2023-04-13T06:57:35.415Z,57.89
2023-04-13T07:00:37.485Z,57.84
2023-04-13T07:03:39.239Z,57.82
2023-04-13T07:06:42.041Z,57.75
2023-04-13T07:09:43.900Z,57.71
2023-04-13T07:12:45.994Z,57.80
2023-04-13T07:15:47.869Z,57.70
2023-04-13T07:18:49.486Z,57.78
2023-04-13T07:21:51.139Z,57.71
2023-04-13T07:24:52.610Z,57.86
2023-04-13T07:27:55.253Z,57.81
2023-04-13T07:30:57.471Z,57.77
2023-04-13T07:33:59.073Z,57.74
2023-04-13T07:37:08.836Z,57.74
2023-04-13T07:40:11.749Z,57.66
2023-04-13T07:43:15.048Z,57.74
2023-04-13T07:46:20.456Z,57.60
2023-04-13T07:49:24.369Z,57.79
2023-04-13T07:52:26.464Z,57.74
2023-04-13T07:55:28.739Z,57.65
2023-04-13T07:58:31.734Z,57.70
2023-04-13T08:01:33.479Z,57.75
2023-04-13T08:04:37.298Z,57.68
2023-04-13T08:07:40.057Z,57.61
2023-04-13T08:10:42.441Z,57.76
2023-04-13T08:13:43.892Z,57.69
2023-04-13T08:16:45.334Z,57.68
2023-04-13T08:19:47.152Z,57.67
2023-04-13T08:22:49.613Z,57.75
2023-04-13T08:25:54.834Z,57.76
2023-04-13T08:28:57.517Z,57.77
2023-04-13T08:31:59.258Z,57.79
2023-04-13T08:35:07.075Z,57.71
2023-04-13T08:38:09.240Z,57.80
2023-04-13T08:41:16.805Z,57.80
2023-04-13T08:44:23.516Z,57.81
2023-04-13T08:47:27.967Z,57.74
2023-04-13T08:50:29.471Z,57.82
2023-04-13T08:53:32.800Z,57.58
2023-04-13T08:56:45.362Z,57.62
2023-04-13T08:59:52.467Z,57.61
2023-04-13T09:03:04.936Z,57.67
2023-04-13T09:06:10.567Z,57.72
2023-04-13T09:09:14.618Z,57.60
2023-04-13T09:12:16.756Z,57.63
2023-04-13T09:15:18.558Z,57.67
2023-04-13T09:18:52.971Z,57.59
2023-04-13T09:21:54.340Z,57.65
2023-04-13T09:24:55.711Z,57.72
2023-04-13T09:27:57.220Z,57.68
2023-04-13T09:31:02.286Z,57.62
2023-04-13T09:34:03.842Z,57.62
2023-04-13T09:37:12.757Z,57.67
2023-04-13T09:40:15.199Z,57.56
2023-04-13T09:43:17.044Z,57.67
2023-04-13T09:46:18.545Z,57.53
2023-04-13T09:49:19.972Z,57.53
2023-04-13T09:52:22.892Z,57.52
2023-04-13T09:55:24.354Z,57.61
2023-04-13T09:58:26.464Z,57.54
2023-04-13T10:01:28.747Z,57.53
2023-04-13T10:04:31.046Z,57.50
2023-04-13T10:07:36.926Z,57.48
2023-04-13T10:10:39.518Z,57.49
2023-04-13T10:13:53.475Z,57.54
2023-04-13T10:16:57.967Z,57.55
2023-04-13T10:20:01.578Z,57.48
2023-04-13T10:23:03.735Z,57.46
2023-04-13T10:26:06.581Z,57.27
2023-04-13T10:29:09.083Z,57.56
2023-04-13T10:32:20.493Z,57.49
2023-04-13T10:35:21.850Z,57.35
2023-04-13T10:38:23.583Z,57.42
2023-04-13T10:41:25.370Z,57.32
2023-04-13T10:44:26.762Z,57.32
2023-04-13T10:47:35.672Z,57.30
2023-04-13T10:50:38.817Z,57.46
2023-04-13T10:53:40.205Z,57.41
2023-04-13T10:56:41.661Z,57.43
2023-04-13T10:59:58.935Z,57.41
2023-04-13T11:03:02.822Z,57.43
2023-04-13T11:06:04.893Z,57.33
2023-04-13T11:09:07.313Z,57.40
2023-04-13T11:12:11.832Z,57.45
2023-04-13T11:15:19.338Z,57.58
2023-04-13T11:18:25.600Z,57.59
2023-04-13T11:21:27.038Z,57.67
2023-04-13T11:24:33.807Z,57.77
2023-04-13T11:27:37.918Z,57.98
2023-04-13T11:30:39.490Z,58.24
2023-04-13T11:33:41.059Z,58.50
2023-04-13T11:36:44.660Z,58.87
2023-04-13T11:39:46.304Z,59.10
2023-04-13T11:42:48.921Z,59.32
2023-04-13T11:45:50.435Z,59.57
2023-04-13T11:48:52.483Z,59.66
2023-04-13T11:51:54.310Z,59.78
2023-04-13T11:54:55.788Z,59.94
2023-04-13T11:57:58.652Z,60.17
2023-04-13T12:01:12.795Z,60.38
2023-04-13T12:04:16.754Z,60.54
2023-04-13T12:07:18.832Z,60.74
2023-04-13T12:10:39.362Z,60.85
2023-04-13T12:13:50.320Z,60.94
2023-04-13T12:17:34.694Z,61.05
2023-04-13T12:20:39.687Z,61.09
2023-04-13T12:23:52.375Z,61.18
2023-04-13T12:30:02.277Z,61.12
2023-04-13T12:33:03.669Z,61.14
2023-04-13T12:36:11.186Z,61.19
2023-04-13T12:39:12.534Z,61.07
2023-04-13T12:42:13.913Z,61.11
2023-04-13T12:45:16.553Z,61.08
2023-04-13T12:48:18.497Z,60.98
2023-04-13T12:51:19.876Z,60.97
2023-04-13T12:54:21.267Z,60.92
2023-04-13T12:57:22.635Z,60.90
2023-04-13T13:00:24.066Z,60.87
2023-04-13T13:03:25.599Z,60.89
2023-04-13T13:06:27.735Z,60.69
2023-04-13T13:09:29.157Z,60.65
2023-04-13T13:12:30.786Z,60.67
2023-04-13T13:15:32.646Z,60.58
2023-04-13T13:18:47.012Z,60.44
2023-04-13T13:21:51.542Z,60.48
2023-04-13T13:24:52.905Z,60.44
2023-04-13T13:28:13.046Z,60.39
2023-04-13T13:31:15.877Z,60.31
2023-04-13T13:34:17.436Z,60.27
2023-04-13T13:37:18.783Z,60.23
2023-04-13T13:40:20.195Z,60.07
2023-04-13T13:43:21.639Z,60.13
2023-04-13T13:46:23.217Z,60.09
2023-04-13T13:49:27.164Z,60.05
2023-04-13T13:52:55.265Z,59.96
2023-04-13T13:56:02.941Z,59.82
2023-04-13T13:59:04.656Z,59.95
2023-04-13T14:02:07.517Z,59.82
2023-04-13T14:05:12.985Z,59.81
2023-04-13T14:08:14.478Z,59.74
2023-04-13T14:11:16.010Z,59.73
2023-04-13T14:14:21.600Z,59.57
2023-04-13T14:17:24.095Z,59.54
2023-04-13T14:20:25.776Z,59.49
2023-04-13T14:23:27.292Z,59.42
2023-04-13T14:26:28.677Z,59.42
2023-04-13T14:29:30.059Z,59.32
2023-04-13T14:32:31.978Z,59.41
2023-04-13T14:35:33.475Z,59.37
2023-04-13T14:38:34.883Z,59.29
2023-04-13T14:41:36.519Z,59.39
2023-04-13T14:44:38.131Z,59.32
2023-04-13T14:47:42.256Z,59.37
2023-04-13T14:50:43.663Z,59.25
2023-04-13T14:53:45.055Z,59.20
2023-04-13T14:56:46.442Z,59.10
2023-04-13T14:59:47.972Z,59.13
2023-04-13T15:02:49.914Z,58.99
2023-04-13T15:05:58.405Z,58.87
2023-04-13T15:09:04.417Z,59.17
2023-04-13T15:12:12.747Z,59.26
2023-04-13T15:15:15.687Z,59.38
2023-04-13T15:18:17.179Z,59.28
2023-04-13T15:21:18.620Z,59.31
2023-04-13T15:24:20.002Z,59.31
2023-04-13T15:27:21.558Z,59.40
2023-04-13T15:30:26.379Z,59.42
2023-04-13T15:33:27.770Z,59.51
2023-04-13T15:36:29.784Z,59.37
2023-04-13T15:39:31.413Z,59.41
2023-04-13T15:42:32.785Z,59.49
2023-04-13T15:45:34.484Z,59.41
2023-04-13T15:48:35.890Z,59.38
2023-04-13T15:51:37.336Z,59.33
2023-04-13T15:54:38.693Z,59.36
2023-04-13T15:57:40.139Z,59.39
2023-04-13T16:00:41.857Z,59.32
2023-04-13T16:03:43.545Z,59.45
2023-04-13T16:06:45.167Z,59.44
2023-04-13T16:09:47.745Z,59.33
2023-04-13T16:12:50.006Z,59.45
2023-04-13T16:15:55.611Z,59.48
2023-04-13T16:18:57.368Z,59.52
2023-04-13T16:21:58.957Z,59.38
2023-04-13T16:25:00.485Z,59.26
2023-04-13T16:28:01.911Z,59.37
2023-04-13T16:31:03.442Z,59.16
2023-04-13T16:34:18.391Z,59.18
2023-04-13T16:37:26.763Z,59.06
2023-04-13T16:40:28.258Z,59.14
2023-04-13T16:43:29.839Z,59.09
2023-04-13T16:46:31.402Z,59.17
2023-04-13T16:49:33.415Z,59.26
2023-04-13T16:52:35.620Z,59.17
2023-04-13T16:55:36.961Z,58.99
2023-04-13T16:58:38.386Z,58.98
2023-04-13T17:01:39.974Z,58.95
2023-04-13T17:04:41.437Z,58.76
2023-04-13T17:07:43.830Z,58.81
2023-04-13T17:10:46.142Z,58.68
2023-04-13T17:13:47.519Z,58.48
2023-04-13T17:16:48.976Z,58.60
2023-04-13T17:19:53.876Z,58.63
2023-04-13T17:22:57.131Z,58.63
2023-04-13T17:25:58.596Z,58.60
2023-04-13T17:29:01.752Z,58.76
2023-04-13T17:32:03.939Z,58.82
2023-04-13T17:35:06.094Z,58.87
2023-04-13T17:38:07.573Z,59.13
2023-04-13T17:41:10.889Z,59.18
2023-04-13T17:44:12.257Z,59.28
2023-04-13T17:47:14.118Z,59.76
2023-04-13T17:50:15.597Z,59.82
2023-04-13T17:53:17.030Z,59.89
2023-04-13T17:56:18.660Z,60.09
2023-04-13T17:59:20.168Z,60.14
2023-04-13T18:02:21.753Z,60.28
2023-04-13T18:05:24.005Z,60.37
2023-04-13T18:08:25.512Z,60.28
2023-04-13T18:11:27.682Z,60.48
2023-04-13T18:14:29.132Z,60.67
2023-04-13T18:17:30.881Z,60.59
2023-04-13T18:20:32.335Z,60.62
2023-04-13T18:23:33.709Z,60.60
2023-04-13T18:26:35.523Z,60.67
2023-04-13T18:29:36.993Z,60.57
2023-04-13T18:32:38.401Z,60.61
2023-04-13T18:35:43.565Z,60.56
2023-04-13T18:38:45.370Z,60.63
2023-04-13T18:41:47.135Z,60.67
2023-04-13T18:44:48.614Z,60.27
2023-04-13T18:47:49.985Z,59.99
2023-04-13T18:50:51.416Z,60.06
2023-04-13T18:53:52.794Z,60.20
2023-04-13T18:56:54.156Z,60.42
2023-04-13T18:59:56.796Z,60.32
2023-04-13T19:02:58.368Z,60.01
2023-04-13T19:06:00.124Z,59.97
2023-04-13T19:09:01.617Z,59.90
2023-04-13T19:12:03.616Z,59.76
2023-04-13T19:15:05.382Z,59.84
2023-04-13T19:18:07.626Z,59.76
2023-04-13T19:21:09.103Z,59.43
2023-04-13T19:24:13.001Z,59.57
2023-04-13T19:27:14.749Z,59.52
2023-04-13T19:30:17.276Z,59.29
2023-04-13T19:33:19.092Z,59.10
2023-04-13T19:36:20.613Z,59.10
2023-04-13T19:39:21.981Z,59.06
2023-04-13T19:42:25.253Z,58.89
2023-04-13T19:45:26.719Z,58.95
2023-04-13T19:48:28.182Z,58.96
2023-04-13T19:51:30.912Z,59.07
2023-04-13T19:54:32.572Z,58.92
2023-04-13T19:57:36.488Z,58.82
2023-04-13T20:00:38.433Z,58.70
2023-04-13T20:03:40.362Z,58.77
2023-04-13T20:06:41.844Z,58.74
2023-04-13T20:09:43.415Z,58.77
2023-04-13T20:12:44.822Z,58.77
2023-04-13T20:15:46.370Z,58.73
2023-04-13T20:18:47.740Z,58.67
2023-04-13T20:21:51.167Z,58.63
2023-04-13T20:24:52.588Z,58.66
2023-04-13T20:27:54.489Z,58.79
2023-04-13T20:30:55.927Z,58.61
2023-04-13T20:33:57.432Z,58.73
2023-04-13T20:36:59.036Z,58.67
2023-04-13T20:40:00.545Z,58.65
2023-04-13T20:43:02.173Z,58.51
2023-04-13T20:46:03.663Z,58.42
2023-04-13T20:49:05.379Z,58.52
2023-04-13T20:52:07.336Z,58.53
2023-04-13T20:55:10.110Z,58.54
2023-04-13T20:58:11.520Z,58.38
2023-04-13T21:01:12.993Z,58.38
2023-04-13T21:04:14.470Z,58.57
2023-04-13T21:07:16.247Z,58.47
2023-04-13T21:10:17.762Z,58.35
2023-04-13T21:13:19.230Z,58.46
2023-04-13T21:16:20.617Z,58.39
2023-04-13T21:19:22.310Z,58.42
2023-04-13T21:22:23.669Z,58.27
2023-04-13T21:25:25.562Z,58.29
2023-04-13T21:28:26.908Z,58.31
2023-04-13T21:31:28.258Z,58.32
2023-04-13T21:34:29.628Z,58.36
2023-04-13T21:37:31.107Z,58.31
2023-04-13T21:40:34.474Z,58.35
2023-04-13T21:43:35.822Z,58.32
2023-04-13T21:46:37.281Z,58.33
2023-04-13T21:49:38.775Z,58.28
2023-04-13T21:52:40.487Z,58.57
2023-04-13T21:55:41.862Z,58.24
2023-04-13T21:58:45.300Z,58.26
2023-04-13T22:01:47.167Z,58.42
2023-04-13T22:04:48.752Z,58.31
2023-04-13T22:07:50.203Z,58.39
2023-04-13T22:10:51.712Z,58.40
2023-04-13T22:13:53.144Z,58.54
2023-04-13T22:16:54.581Z,58.65
2023-04-13T22:19:56.185Z,58.80
2023-04-13T22:22:57.648Z,58.90
2023-04-13T22:26:01.169Z,59.03
2023-04-13T22:29:03.169Z,58.98
2023-04-13T22:32:04.681Z,58.99
2023-04-13T22:35:06.553Z,59.26
2023-04-13T22:38:07.974Z,59.21
2023-04-13T22:41:09.732Z,59.32
2023-04-13T22:44:11.209Z,59.31
2023-04-13T22:47:12.561Z,59.45
2023-04-13T22:50:13.941Z,59.44
2023-04-13T22:53:15.607Z,59.43
2023-04-13T22:56:17.053Z,59.35
2023-04-13T22:59:18.559Z,59.37
2023-04-13T23:02:20.053Z,59.41
2023-04-13T23:05:21.627Z,59.44
2023-04-13T23:08:23.086Z,59.36
2023-04-13T23:11:24.562Z,59.52
2023-04-13T23:14:25.939Z,59.60
2023-04-13T23:17:27.369Z,59.60
2023-04-13T23:20:29.207Z,59.64
2023-04-13T23:23:30.569Z,59.61
2023-04-13T23:26:31.947Z,59.52
2023-04-13T23:29:33.439Z,59.55
2023-04-13T23:32:34.963Z,59.55
2023-04-13T23:35:36.422Z,59.63
2023-04-13T23:38:37.878Z,59.69
2023-04-13T23:41:39.254Z,59.70
2023-04-13T23:44:40.894Z,59.70
2023-04-13T23:47:42.518Z,59.71
2023-04-13T23:50:44.619Z,59.80
2023-04-13T23:53:46.266Z,59.68
2023-04-13T23:56:47.655Z,59.82
2023-04-13T23:59:49.067Z,59.94
